createdAt,value
2023-03-26T00:01:30.024Z,64.89
2023-03-26T00:03:58.245Z,64.77
2023-03-26T00:06:36.905Z,65.04
2023-03-26T00:09:05.362Z,65.08
2023-03-26T00:11:32.492Z,65.21
2023-03-26T00:13:59.608Z,65.31
2023-03-26T00:16:30.787Z,65.39
2023-03-26T00:18:58.954Z,65.29
2023-03-26T00:21:29.200Z,65.24
2023-03-26T00:24:00.038Z,65.22
2023-03-26T00:26:27.657Z,65.37
2023-03-26T00:28:54.836Z,65.11
2023-03-26T00:31:22.041Z,65.24
2023-03-26T00:33:54.457Z,65.33
2023-03-26T00:36:22.815Z,65.10
2023-03-26T00:38:49.831Z,65.09
2023-03-26T00:41:23.204Z,65.29
2023-03-26T00:43:52.202Z,65.28
2023-03-26T00:46:19.892Z,65.16
2023-03-26T00:48:47.262Z,65.14
2023-03-26T00:51:16.368Z,65.24
2023-03-26T00:53:45.660Z,65.00
2023-03-26T00:56:13.051Z,65.06
2023-03-26T00:58:40.462Z,64.89
2023-03-26T01:01:17.423Z,64.97
2023-03-26T01:04:00.931Z,65.06
2023-03-26T01:06:36.730Z,64.78
2023-03-26T01:09:14.789Z,64.82
2023-03-26T01:11:42.287Z,64.59
2023-03-26T01:14:13.176Z,64.75
2023-03-26T01:16:45.226Z,64.83
2023-03-26T01:19:23.035Z,64.86
2023-03-26T01:21:50.015Z,64.89
2023-03-26T01:24:17.316Z,64.96
2023-03-26T01:26:58.134Z,64.86
2023-03-26T01:29:34.139Z,65.10
2023-03-26T01:32:09.791Z,65.16
2023-03-26T01:34:43.652Z,65.12
2023-03-26T01:37:38.138Z,65.15
2023-03-26T01:40:12.155Z,65.06
2023-03-26T01:42:54.871Z,65.15
2023-03-26T01:45:26.684Z,65.50
2023-03-26T01:47:54.708Z,65.37
2023-03-26T01:50:21.805Z,65.24
2023-03-26T01:52:48.824Z,65.28
2023-03-26T01:55:16.158Z,65.09
2023-03-26T01:58:03.794Z,65.04
2023-03-26T02:00:37.577Z,65.00
2023-03-26T02:03:18.518Z,65.09
2023-03-26T02:06:11.457Z,64.92
2023-03-26T02:08:47.855Z,64.86
2023-03-26T02:11:16.604Z,65.04
2023-03-26T02:13:46.733Z,64.91
2023-03-26T02:16:16.782Z,64.89
2023-03-26T02:18:45.882Z,64.91
2023-03-26T02:21:21.730Z,64.98
2023-03-26T02:23:51.073Z,64.97
2023-03-26T02:26:20.094Z,64.65
2023-03-26T02:28:47.216Z,64.81
2023-03-26T02:31:16.273Z,64.76
2023-03-26T02:33:44.882Z,64.83
2023-03-26T02:36:14.272Z,64.73
2023-03-26T02:38:41.820Z,64.65
2023-03-26T02:41:08.832Z,64.51
2023-03-26T02:43:35.895Z,64.30
2023-03-26T02:46:02.901Z,64.16
2023-03-26T02:48:29.952Z,64.13
2023-03-26T02:50:57.105Z,63.73
2023-03-26T02:53:30.262Z,63.56
2023-03-26T02:55:58.462Z,63.43
2023-03-26T02:58:26.536Z,63.55
2023-03-26T03:00:57.399Z,63.43
2023-03-26T03:03:26.386Z,63.22
2023-03-26T03:05:55.062Z,63.21
2023-03-26T03:08:25.008Z,63.20
2023-03-26T03:11:02.182Z,63.33
2023-03-26T03:13:29.488Z,63.19
2023-03-26T03:15:56.888Z,63.26
2023-03-26T03:18:24.096Z,63.26
2023-03-26T03:20:51.374Z,63.45
2023-03-26T03:23:18.337Z,63.14
2023-03-26T03:25:45.635Z,63.21
2023-03-26T03:28:14.009Z,62.98
2023-03-26T03:30:40.993Z,62.93
2023-03-26T03:33:08.120Z,63.02
2023-03-26T03:35:35.377Z,62.89
2023-03-26T03:38:02.412Z,62.65
2023-03-26T03:40:29.530Z,62.55
2023-03-26T03:42:56.587Z,62.35
2023-03-26T03:45:23.634Z,62.22
2023-03-26T03:47:50.937Z,61.85
2023-03-26T03:50:17.907Z,61.76
2023-03-26T03:52:44.971Z,61.56
2023-03-26T03:55:14.230Z,61.55
2023-03-26T03:57:41.528Z,61.35
2023-03-26T04:00:10.282Z,60.93
2023-03-26T04:02:37.745Z,61.28
2023-03-26T04:05:06.279Z,61.18
2023-03-26T04:07:33.336Z,61.30
2023-03-26T04:10:02.257Z,61.14
2023-03-26T04:12:31.335Z,60.83
2023-03-26T04:14:59.298Z,60.63
2023-03-26T04:17:26.868Z,60.77
2023-03-26T04:19:55.205Z,60.56
2023-03-26T04:22:23.773Z,60.63
2023-03-26T04:24:54.734Z,60.32
2023-03-26T04:27:28.525Z,60.64
2023-03-26T04:29:58.349Z,60.71
2023-03-26T04:32:30.079Z,60.78
2023-03-26T04:35:04.298Z,61.01
2023-03-26T04:37:40.159Z,61.19
2023-03-26T04:40:10.420Z,60.95
2023-03-26T04:42:41.905Z,61.19
2023-03-26T04:45:11.342Z,61.68
2023-03-26T04:47:39.337Z,61.41
2023-03-26T04:50:11.475Z,61.82
2023-03-26T04:52:38.912Z,61.61
2023-03-26T04:55:14.076Z,61.86
2023-03-26T04:57:46.433Z,61.95
2023-03-26T05:00:16.780Z,62.00
2023-03-26T05:02:43.971Z,61.87
2023-03-26T05:05:12.357Z,61.74
2023-03-26T05:07:39.381Z,61.74
2023-03-26T05:10:07.489Z,61.69
2023-03-26T05:12:35.161Z,61.40
2023-03-26T05:15:02.249Z,60.89
2023-03-26T05:17:31.195Z,60.82
2023-03-26T05:19:58.283Z,60.31
2023-03-26T05:22:25.567Z,60.02
2023-03-26T05:24:52.774Z,59.66
2023-03-26T05:27:22.601Z,59.16
2023-03-26T05:29:50.777Z,58.63
2023-03-26T05:32:17.751Z,58.57
2023-03-26T05:34:45.261Z,58.25
2023-03-26T05:37:12.233Z,58.25
2023-03-26T05:39:39.459Z,58.13
2023-03-26T05:42:08.172Z,58.39
2023-03-26T05:44:35.587Z,57.89
2023-03-26T05:47:02.709Z,58.06
2023-03-26T05:49:29.882Z,58.19
2023-03-26T05:51:56.840Z,58.05
2023-03-26T05:54:23.993Z,58.12
2023-03-26T05:56:51.427Z,58.32
2023-03-26T05:59:18.596Z,58.21
2023-03-26T06:01:45.568Z,57.98
2023-03-26T06:04:13.905Z,57.95
2023-03-26T06:06:41.435Z,57.84
2023-03-26T06:09:08.675Z,57.80
2023-03-26T06:11:35.976Z,57.91
2023-03-26T06:14:02.933Z,57.54
2023-03-26T06:16:29.981Z,57.54
2023-03-26T06:18:57.792Z,57.67
2023-03-26T06:21:28.890Z,57.87
2023-03-26T06:23:56.182Z,57.80
2023-03-26T06:26:23.395Z,57.71
2023-03-26T06:28:50.605Z,58.01
2023-03-26T06:31:19.410Z,58.05
2023-03-26T06:33:47.152Z,57.94
2023-03-26T06:36:14.204Z,58.16
2023-03-26T06:38:41.270Z,58.26
2023-03-26T06:41:08.315Z,58.32
2023-03-26T06:43:36.425Z,58.97
2023-03-26T06:46:03.723Z,60.14
2023-03-26T06:48:31.159Z,60.60
2023-03-26T06:50:58.347Z,60.57
2023-03-26T06:53:25.441Z,60.98
2023-03-26T06:55:55.568Z,60.98
2023-03-26T06:58:22.685Z,61.24
2023-03-26T07:00:53.875Z,61.16
2023-03-26T07:03:21.535Z,61.14
2023-03-26T07:05:49.254Z,61.10
2023-03-26T07:08:16.672Z,61.15
2023-03-26T07:10:45.047Z,61.01
2023-03-26T07:13:12.096Z,61.37
2023-03-26T07:15:39.137Z,61.56
2023-03-26T07:18:06.663Z,61.50
2023-03-26T07:20:33.835Z,61.41
2023-03-26T07:23:01.347Z,61.47
2023-03-26T07:25:28.897Z,61.65
2023-03-26T07:28:04.634Z,62.17
2023-03-26T07:30:53.654Z,62.05
2023-03-26T07:33:40.028Z,61.72
2023-03-26T07:36:25.103Z,61.70
2023-03-26T07:39:08.934Z,61.20
2023-03-26T07:41:51.276Z,60.51
2023-03-26T07:44:44.632Z,60.00
2023-03-26T07:47:26.186Z,59.76
2023-03-26T07:49:57.857Z,59.38
2023-03-26T07:52:26.290Z,59.08
2023-03-26T07:54:54.026Z,59.24
2023-03-26T07:57:47.791Z,58.53
2023-03-26T08:00:24.266Z,58.50
2023-03-26T08:03:27.734Z,58.45
2023-03-26T08:06:17.201Z,57.99
2023-03-26T08:09:04.244Z,58.63
2023-03-26T08:11:57.218Z,58.54
2023-03-26T08:14:45.770Z,58.54
2023-03-26T08:17:31.062Z,58.73
2023-03-26T08:20:16.762Z,58.69
2023-03-26T08:22:50.939Z,58.46
2023-03-26T08:25:28.359Z,58.48
2023-03-26T08:28:10.842Z,58.01
2023-03-26T08:30:37.998Z,58.26
2023-03-26T08:33:19.010Z,57.77
2023-03-26T08:35:47.250Z,57.93
2023-03-26T08:38:16.966Z,57.75
2023-03-26T08:41:02.587Z,57.84
2023-03-26T08:43:55.650Z,57.72
2023-03-26T08:46:44.122Z,57.13
2023-03-26T08:49:32.418Z,57.32
2023-03-26T08:52:31.741Z,57.14
2023-03-26T08:55:35.323Z,56.82
2023-03-26T08:58:26.400Z,56.51
2023-03-26T09:01:21.267Z,56.65
2023-03-26T09:04:21.137Z,56.49
2023-03-26T09:07:06.985Z,56.66
2023-03-26T09:10:15.759Z,56.68
2023-03-26T09:13:21.369Z,56.59
2023-03-26T09:16:25.832Z,56.56
2023-03-26T09:19:13.538Z,56.19
2023-03-26T09:21:58.606Z,56.19
2023-03-26T09:24:49.045Z,56.40
2023-03-26T09:27:37.572Z,56.62
2023-03-26T09:30:42.227Z,56.95
2023-03-26T09:33:42.959Z,57.50
2023-03-26T09:36:21.861Z,57.51
2023-03-26T09:39:30.189Z,57.80
2023-03-26T09:42:25.121Z,58.03
2023-03-26T09:45:10.796Z,58.11
2023-03-26T09:47:56.778Z,58.37
2023-03-26T09:50:43.321Z,58.52
2023-03-26T09:53:42.102Z,58.61
2023-03-26T09:56:18.883Z,59.12
2023-03-26T09:59:23.254Z,59.24
2023-03-26T10:01:53.192Z,59.17
2023-03-26T10:04:56.083Z,59.23
2023-03-26T10:08:02.445Z,58.75
2023-03-26T10:10:39.379Z,58.39
2023-03-26T10:13:19.016Z,58.31
2023-03-26T10:16:17.242Z,58.22
2023-03-26T10:19:23.334Z,58.18
2023-03-26T10:22:12.013Z,58.20
2023-03-26T10:24:48.315Z,58.09
2023-03-26T10:27:49.456Z,58.09
2023-03-26T10:30:30.637Z,57.85
2023-03-26T10:33:23.374Z,58.23
2023-03-26T10:36:22.682Z,57.82
2023-03-26T10:39:37.358Z,58.26
2023-03-26T10:42:12.059Z,58.14
2023-03-26T10:45:29.920Z,58.50
2023-03-26T10:48:20.099Z,58.63
2023-03-26T10:50:58.050Z,59.04
2023-03-26T10:53:34.804Z,59.25
2023-03-26T10:56:14.109Z,59.64
2023-03-26T10:58:49.574Z,59.63
2023-03-26T11:01:38.574Z,59.97
2023-03-26T11:04:38.216Z,59.90
2023-03-26T11:07:23.619Z,60.24
2023-03-26T11:10:10.586Z,59.82
2023-03-26T11:12:53.185Z,59.40
2023-03-26T11:15:41.732Z,59.16
2023-03-26T11:18:19.234Z,58.73
2023-03-26T11:21:18.788Z,58.46
2023-03-26T11:24:16.572Z,58.03
2023-03-26T11:27:15.556Z,58.21
2023-03-26T11:29:58.280Z,58.10
2023-03-26T11:32:31.536Z,57.86
2023-03-26T11:35:04.372Z,57.51
2023-03-26T11:37:37.935Z,56.83
2023-03-26T11:40:21.592Z,55.76
2023-03-26T11:42:54.649Z,55.09
2023-03-26T11:45:26.264Z,53.54
2023-03-26T11:48:02.191Z,52.59
2023-03-26T11:50:33.076Z,51.62
2023-03-26T11:53:12.127Z,51.15
2023-03-26T11:55:50.503Z,51.08
2023-03-26T11:58:34.311Z,51.33
2023-03-26T12:01:13.042Z,51.83
2023-03-26T12:03:40.786Z,52.01
2023-03-26T12:06:25.874Z,51.80
2023-03-26T12:08:54.265Z,52.52
2023-03-26T12:11:28.929Z,52.67
2023-03-26T12:14:02.738Z,52.81
2023-03-26T12:16:30.130Z,52.84
2023-03-26T12:19:00.290Z,53.19
2023-03-26T12:21:27.657Z,52.99
2023-03-26T12:24:04.854Z,52.76
2023-03-26T12:26:49.200Z,52.59
2023-03-26T12:29:19.304Z,51.98
2023-03-26T12:31:49.636Z,51.92
2023-03-26T12:34:22.509Z,52.13
2023-03-26T12:37:00.236Z,52.55
2023-03-26T12:40:07.431Z,52.44
2023-03-26T12:44:48.103Z,52.63
2023-03-26T12:45:14.584Z,52.68
2023-03-26T12:48:00.710Z,52.75
2023-03-26T12:50:57.396Z,53.03
2023-03-26T12:53:58.830Z,53.22
2023-03-26T12:56:38.592Z,53.32
2023-03-26T12:59:22.279Z,53.86
2023-03-26T13:02:20.219Z,54.06
2023-03-26T13:05:20.545Z,54.23
2023-03-26T13:08:18.729Z,54.37
2023-03-26T13:11:02.325Z,54.76
2023-03-26T13:13:41.637Z,54.65
2023-03-26T13:16:18.069Z,54.86
2023-03-26T13:18:54.214Z,55.08
2023-03-26T13:21:37.439Z,55.38
2023-03-26T13:24:23.267Z,55.57
2023-03-26T13:27:31.804Z,55.67
2023-03-26T13:30:22.255Z,55.61
2023-03-26T13:33:26.104Z,55.77
2023-03-26T13:36:23.143Z,55.50
2023-03-26T13:39:27.925Z,55.98
2023-03-26T13:42:14.857Z,55.81
2023-03-26T13:45:12.353Z,55.79
2023-03-26T13:47:46.641Z,55.81
2023-03-26T13:50:27.299Z,56.21
2023-03-26T13:53:19.428Z,56.19
2023-03-26T13:55:53.592Z,55.95
2023-03-26T13:58:38.900Z,56.14
2023-03-26T14:01:19.824Z,56.22
2023-03-26T14:03:52.639Z,56.26
2023-03-26T14:06:42.428Z,56.06
2023-03-26T14:09:26.287Z,56.46
2023-03-26T14:12:01.986Z,56.42
2023-03-26T14:14:54.471Z,56.56
2023-03-26T14:17:47.687Z,56.35
2023-03-26T14:20:32.721Z,56.73
2023-03-26T14:23:23.547Z,56.82
2023-03-26T14:25:57.994Z,56.76
2023-03-26T14:28:43.584Z,57.08
2023-03-26T14:31:20.805Z,57.23
2023-03-26T14:34:16.512Z,57.84
2023-03-26T14:37:13.877Z,57.94
2023-03-26T14:40:15.322Z,58.02
2023-03-26T14:42:56.881Z,58.25
2023-03-26T14:45:50.129Z,58.72
2023-03-26T14:48:38.735Z,58.99
2023-03-26T14:51:14.825Z,59.70
2023-03-26T14:53:59.328Z,59.59
2023-03-26T14:56:48.889Z,60.09
2023-03-26T15:00:07.303Z,60.33
2023-03-26T15:02:55.785Z,60.40
2023-03-26T15:06:04.121Z,61.22
2023-03-26T15:08:49.696Z,60.95
2023-03-26T15:11:25.927Z,61.07
2023-03-26T15:14:30.360Z,61.74
2023-03-26T15:17:33.328Z,61.71
2023-03-26T15:20:18.241Z,61.94
2023-03-26T15:23:22.573Z,62.22
2023-03-26T15:25:58.593Z,62.37
2023-03-26T15:29:05.291Z,62.60
2023-03-26T15:32:12.443Z,62.81
2023-03-26T15:35:17.146Z,63.28
2023-03-26T15:38:12.818Z,63.23
2023-03-26T15:41:03.643Z,63.47
2023-03-26T15:44:23.139Z,63.56
2023-03-26T15:46:37.815Z,63.48
2023-03-26T15:49:17.008Z,63.44
2023-03-26T15:52:09.486Z,63.45
2023-03-26T15:54:59.665Z,63.68
2023-03-26T15:57:36.530Z,63.75
2023-03-26T16:00:25.271Z,63.69
2023-03-26T16:03:10.165Z,64.12
2023-03-26T16:05:40.650Z,63.98
2023-03-26T16:08:19.859Z,64.08
2023-03-26T16:10:50.782Z,64.22
2023-03-26T16:13:19.157Z,64.18
2023-03-26T16:16:16.345Z,64.65
2023-03-26T16:19:20.318Z,64.44
2023-03-26T16:22:00.990Z,64.70
2023-03-26T16:24:35.647Z,64.55
2023-03-26T16:27:08.245Z,64.59
2023-03-26T16:30:01.634Z,64.68
2023-03-26T16:32:40.885Z,64.73
2023-03-26T16:35:14.544Z,64.62
2023-03-26T16:38:04.904Z,64.85
2023-03-26T16:40:37.202Z,64.58
2023-03-26T16:43:22.757Z,64.58
2023-03-26T16:46:28.992Z,64.84
2023-03-26T16:48:56.662Z,64.62
2023-03-26T16:51:51.449Z,64.88
2023-03-26T16:54:39.693Z,64.93
2023-03-26T16:57:23.520Z,64.67
2023-03-26T17:00:07.063Z,64.87
2023-03-26T17:03:13.458Z,64.71
2023-03-26T17:05:57.180Z,64.42
2023-03-26T17:08:39.257Z,63.75
2023-03-26T17:11:45.003Z,63.12
2023-03-26T17:14:51.379Z,62.76
2023-03-26T17:17:40.959Z,62.17
2023-03-26T17:20:33.950Z,61.78
2023-03-26T17:23:16.956Z,61.21
2023-03-26T17:25:52.884Z,60.92
2023-03-26T17:28:50.941Z,60.66
2023-03-26T17:31:36.994Z,60.32
2023-03-26T17:34:52.643Z,60.00
2023-03-26T17:37:24.092Z,59.54
2023-03-26T17:39:51.667Z,59.48
2023-03-26T17:42:39.170Z,59.21
2023-03-26T17:45:17.866Z,59.18
2023-03-26T17:48:02.622Z,58.76
2023-03-26T17:50:42.411Z,58.34
2023-03-26T17:53:31.660Z,57.99
2023-03-26T17:56:04.199Z,57.88
2023-03-26T17:58:37.742Z,57.06
2023-03-26T18:01:13.591Z,56.53
2023-03-26T18:03:49.573Z,56.04
2023-03-26T18:07:04.194Z,55.53
2023-03-26T18:10:09.885Z,55.22
2023-03-26T18:13:03.117Z,55.24
2023-03-26T18:15:44.847Z,55.49
2023-03-26T18:18:38.929Z,55.23
2023-03-26T18:21:08.721Z,55.48
2023-03-26T18:23:39.263Z,55.37
2023-03-26T18:26:32.794Z,55.44
2023-03-26T18:29:29.232Z,55.47
2023-03-26T18:32:00.897Z,55.76
2023-03-26T18:34:32.159Z,55.77
2023-03-26T18:37:11.823Z,55.97
2023-03-26T18:39:39.473Z,55.92
2023-03-26T18:42:07.407Z,55.89
2023-03-26T18:44:39.526Z,56.04
2023-03-26T18:47:09.786Z,56.36
2023-03-26T18:49:38.153Z,56.23
2023-03-26T18:52:06.656Z,56.28
2023-03-26T18:54:36.845Z,56.06
2023-03-26T18:57:17.214Z,55.99
2023-03-26T18:59:45.802Z,55.88
2023-03-26T19:02:14.926Z,56.14
2023-03-26T19:04:46.966Z,55.89
2023-03-26T19:07:22.712Z,55.89
2023-03-26T19:09:54.958Z,55.87
2023-03-26T19:12:27.704Z,55.94
2023-03-26T19:15:17.530Z,55.86
2023-03-26T19:17:57.159Z,56.12
2023-03-26T19:20:29.964Z,55.86
2023-03-26T19:22:58.389Z,56.00
2023-03-26T19:25:41.652Z,56.08
2023-03-26T19:28:22.823Z,56.12
2023-03-26T19:30:56.054Z,55.90
2023-03-26T19:33:25.158Z,55.74
2023-03-26T19:36:18.001Z,55.83
2023-03-26T19:38:49.918Z,55.98
2023-03-26T19:41:25.093Z,55.82
2023-03-26T19:43:59.087Z,55.61
2023-03-26T19:46:29.395Z,55.34
2023-03-26T19:48:58.495Z,55.24
2023-03-26T19:51:33.061Z,54.50
2023-03-26T19:54:19.960Z,54.35
2023-03-26T19:56:47.585Z,54.00
2023-03-26T19:59:15.584Z,54.18
2023-03-26T20:01:42.712Z,53.92
2023-03-26T20:04:11.762Z,53.83
2023-03-26T20:06:44.231Z,53.81
2023-03-26T20:09:16.537Z,53.75
2023-03-26T20:11:47.082Z,53.50
2023-03-26T20:14:17.431Z,53.47
2023-03-26T20:16:47.949Z,53.52
2023-03-26T20:19:15.760Z,53.24
2023-03-26T20:21:44.976Z,53.35
2023-03-26T20:24:15.176Z,53.38
2023-03-26T20:26:43.768Z,53.09
2023-03-26T20:29:13.102Z,53.35
2023-03-26T20:31:41.949Z,53.30
2023-03-26T20:34:22.389Z,53.12
2023-03-26T20:36:55.613Z,53.40
2023-03-26T20:39:24.492Z,53.29
2023-03-26T20:41:53.955Z,53.32
2023-03-26T20:44:22.103Z,53.48
2023-03-26T20:46:50.391Z,53.26
2023-03-26T20:49:18.705Z,53.32
2023-03-26T20:51:46.921Z,53.60
2023-03-26T20:54:23.808Z,53.66
2023-03-26T20:56:51.742Z,53.32
2023-03-26T20:59:22.663Z,53.22
2023-03-26T21:01:50.590Z,53.53
2023-03-26T21:04:19.376Z,53.58
2023-03-26T21:06:51.783Z,53.65
2023-03-26T21:09:24.361Z,53.68
2023-03-26T21:12:02.674Z,53.59
2023-03-26T21:14:43.612Z,53.68
2023-03-26T21:17:19.996Z,53.59
2023-03-26T21:19:48.177Z,53.66
2023-03-26T21:22:27.594Z,53.52
2023-03-26T21:25:17.339Z,53.34
2023-03-26T21:28:00.148Z,53.54
2023-03-26T21:30:27.809Z,53.60
2023-03-26T21:32:55.359Z,53.76
2023-03-26T21:35:23.178Z,53.64
2023-03-26T21:37:51.051Z,53.68
2023-03-26T21:40:19.638Z,53.79
2023-03-26T21:42:48.725Z,53.73
2023-03-26T21:45:16.415Z,53.96
2023-03-26T21:47:44.899Z,53.85
2023-03-26T21:50:14.851Z,54.04
2023-03-26T21:52:47.182Z,54.01
2023-03-26T21:55:22.518Z,54.02
2023-03-26T21:57:54.684Z,53.97
2023-03-26T22:00:33.502Z,53.78
2023-03-26T22:03:32.948Z,54.11
2023-03-26T22:06:09.170Z,53.99
2023-03-26T22:08:41.141Z,53.93
2023-03-26T22:11:10.578Z,54.17
2023-03-26T22:13:40.428Z,54.75
2023-03-26T22:16:10.012Z,54.62
2023-03-26T22:18:37.142Z,54.96
2023-03-26T22:21:04.808Z,55.17
2023-03-26T22:23:36.622Z,55.26
2023-03-26T22:26:06.129Z,55.75
2023-03-26T22:28:33.560Z,55.46
2023-03-26T22:31:07.476Z,55.50
2023-03-26T22:33:36.165Z,55.45
2023-03-26T22:36:03.269Z,55.48
2023-03-26T22:38:30.951Z,55.84
2023-03-26T22:40:58.748Z,55.81
2023-03-26T22:43:26.285Z,56.42
2023-03-26T22:45:54.835Z,56.07
2023-03-26T22:48:23.702Z,56.57
2023-03-26T22:51:02.989Z,56.84
2023-03-26T22:53:31.004Z,56.89
2023-03-26T22:55:59.266Z,57.18
2023-03-26T22:58:27.310Z,57.44
2023-03-26T23:01:09.481Z,57.49
2023-03-26T23:03:37.459Z,57.72
2023-03-26T23:06:07.682Z,57.94
2023-03-26T23:08:36.356Z,58.24
2023-03-26T23:11:15.351Z,58.57
2023-03-26T23:13:43.653Z,58.96
2023-03-26T23:16:12.019Z,58.90
2023-03-26T23:18:39.829Z,58.61
2023-03-26T23:21:11.855Z,58.85
2023-03-26T23:23:39.917Z,59.05
2023-03-26T23:26:07.448Z,59.42
2023-03-26T23:28:35.247Z,59.13
2023-03-26T23:31:05.177Z,59.20
2023-03-26T23:33:35.540Z,59.28
2023-03-26T23:36:09.365Z,59.37
2023-03-26T23:38:44.244Z,59.50
2023-03-26T23:41:15.965Z,59.42
2023-03-26T23:43:55.721Z,59.50
2023-03-26T23:46:25.743Z,59.53
2023-03-26T23:48:53.100Z,59.75
2023-03-26T23:51:21.192Z,59.91
2023-03-26T23:53:49.598Z,59.95
2023-03-26T23:56:17.262Z,60.03
2023-03-26T23:58:44.238Z,60.34
